createdAt,value
2022-12-13T00:02:11.145Z,10.83
2022-12-13T00:04:38.250Z,9.63
2022-12-13T00:07:05.369Z,9.70
2022-12-13T00:09:32.473Z,13.67
2022-12-13T00:11:59.617Z,12.67
2022-12-13T00:14:26.767Z,15.13
2022-12-13T00:16:53.906Z,11.90
2022-12-13T00:19:21.338Z,11.03
2022-12-13T00:21:48.509Z,9.17
2022-12-13T00:24:16.071Z,9.83
2022-12-13T00:26:43.209Z,9.50
2022-12-13T00:29:11.277Z,11.10
2022-12-13T00:31:59.942Z,8.87
2022-12-13T00:34:25.900Z,11.53
2022-12-13T00:36:54.476Z,6.07
2022-12-13T00:39:21.556Z,10.43
2022-12-13T00:41:48.661Z,9.03
2022-12-13T00:44:15.908Z,11.17
2022-12-13T00:46:43.437Z,12.37
2022-12-13T00:49:10.747Z,8.67
2022-12-13T00:51:37.998Z,11.97
2022-12-13T00:54:05.234Z,8.67
2022-12-13T00:56:32.688Z,8.13
2022-12-13T00:58:59.850Z,11.77
2022-12-13T01:01:27.748Z,10.43
2022-12-13T01:03:55.301Z,8.87
2022-12-13T01:06:23.676Z,7.57
2022-12-13T01:08:50.768Z,9.43
2022-12-13T01:11:18.385Z,13.47
2022-12-13T01:13:45.627Z,9.73
2022-12-13T01:16:12.954Z,12.97
2022-12-13T01:18:40.327Z,10.70
2022-12-13T01:21:08.309Z,12.43
2022-12-13T01:23:35.521Z,12.13
2022-12-13T01:26:04.347Z,10.10
2022-12-13T01:28:31.537Z,11.53
2022-12-13T01:30:59.742Z,10.23
2022-12-13T01:33:27.110Z,7.93
2022-12-13T01:35:54.282Z,9.70
2022-12-13T01:38:21.469Z,9.90
2022-12-13T01:40:58.968Z,11.63
2022-12-13T01:43:30.414Z,10.70
2022-12-13T01:45:57.597Z,8.77
2022-12-13T01:48:25.899Z,7.77
2022-12-13T01:50:53.603Z,9.97
2022-12-13T01:53:22.344Z,8.60
2022-12-13T01:55:51.431Z,10.90
2022-12-13T01:58:18.554Z,10.27
2022-12-13T02:00:45.674Z,8.00
2022-12-13T02:03:21.430Z,8.60
2022-12-13T02:05:52.169Z,9.93
2022-12-13T02:08:19.690Z,8.40
2022-12-13T02:10:46.901Z,8.60
2022-12-13T02:13:14.097Z,7.50
2022-12-13T02:16:13.484Z,9.73
2022-12-13T02:18:49.567Z,7.80
2022-12-13T02:21:24.179Z,7.83
2022-12-13T02:24:08.949Z,10.33
2022-12-13T02:26:45.009Z,8.93
2022-12-13T02:29:30.888Z,8.60
2022-12-13T02:32:05.377Z,9.63
2022-12-13T02:34:37.470Z,8.50
2022-12-13T02:37:18.152Z,7.07
2022-12-13T02:39:48.281Z,7.07
2022-12-13T02:42:21.401Z,9.37
2022-12-13T02:44:58.569Z,7.50
2022-12-13T02:47:26.335Z,10.30
2022-12-13T02:49:57.708Z,6.73
2022-12-13T02:52:25.874Z,7.33
2022-12-13T02:54:54.887Z,8.57
2022-12-13T02:57:37.923Z,9.73
2022-12-13T03:00:15.620Z,6.43
2022-12-13T03:02:43.692Z,9.63
2022-12-13T03:05:29.492Z,11.57
2022-12-13T03:08:08.567Z,11.00
2022-12-13T03:11:04.799Z,13.40
2022-12-13T03:13:38.010Z,18.10
2022-12-13T03:16:10.980Z,16.87
2022-12-13T03:18:38.126Z,14.77
2022-12-13T03:21:05.907Z,17.77
2022-12-13T03:23:33.293Z,18.10
2022-12-13T03:26:01.213Z,16.17
2022-12-13T03:28:28.328Z,10.50
2022-12-13T03:30:55.529Z,16.43
2022-12-13T03:33:22.779Z,17.80
2022-12-13T03:35:49.875Z,19.57
2022-12-13T03:38:22.854Z,20.70
2022-12-13T03:41:10.903Z,20.93
2022-12-13T03:43:38.861Z,11.27
2022-12-13T03:46:06.180Z,18.97
2022-12-13T03:48:33.408Z,10.37
2022-12-13T03:51:00.510Z,9.77
2022-12-13T03:53:33.261Z,9.83
2022-12-13T03:56:01.765Z,9.17
2022-12-13T03:58:36.524Z,8.67
2022-12-13T04:01:08.021Z,12.00
2022-12-13T04:03:35.395Z,11.37
2022-12-13T04:06:02.537Z,9.23
2022-12-13T04:08:29.695Z,7.63
2022-12-13T04:10:56.819Z,7.87
2022-12-13T04:13:32.847Z,8.60
2022-12-13T04:16:00.256Z,6.57
2022-12-13T04:18:27.452Z,11.23
2022-12-13T04:20:54.584Z,21.53
2022-12-13T04:23:21.660Z,19.13
2022-12-13T04:25:48.748Z,17.87
2022-12-13T04:28:21.833Z,10.83
2022-12-13T04:30:52.735Z,11.73
2022-12-13T04:33:21.213Z,11.97
2022-12-13T04:35:48.656Z,11.73
2022-12-13T04:38:15.822Z,10.57
2022-12-13T04:40:42.954Z,7.50
2022-12-13T04:43:10.089Z,7.53
2022-12-13T04:45:37.208Z,8.10
2022-12-13T04:48:04.584Z,11.70
2022-12-13T04:50:31.692Z,7.97
2022-12-13T04:52:58.840Z,6.57
2022-12-13T04:55:25.959Z,7.50
2022-12-13T04:57:53.029Z,7.27
2022-12-13T05:00:22.123Z,6.97
2022-12-13T05:02:49.348Z,7.93
2022-12-13T05:05:16.874Z,7.07
2022-12-13T05:07:44.292Z,7.30
2022-12-13T05:10:12.025Z,6.50
2022-12-13T05:12:39.146Z,9.73
2022-12-13T05:15:06.577Z,9.70
2022-12-13T05:17:33.886Z,10.33
2022-12-13T05:20:01.040Z,12.13
2022-12-13T05:22:28.163Z,10.63
2022-12-13T05:24:55.287Z,11.60
2022-12-13T05:27:24.615Z,13.40
2022-12-13T05:30:02.315Z,13.27
2022-12-13T05:32:33.851Z,13.60
2022-12-13T05:35:11.603Z,13.53
2022-12-13T05:37:38.742Z,12.03
2022-12-13T05:40:06.213Z,12.13
2022-12-13T05:42:33.299Z,13.17
2022-12-13T05:45:00.449Z,12.63
2022-12-13T05:47:27.524Z,17.87
2022-12-13T05:49:54.610Z,16.43
2022-12-13T05:52:22.291Z,26.53
2022-12-13T05:55:13.047Z,34.23
2022-12-13T05:57:40.224Z,33.50
2022-12-13T06:00:29.084Z,34.03
2022-12-13T06:02:55.372Z,26.07
2022-12-13T06:05:22.502Z,37.73
2022-12-13T06:07:53.615Z,32.27
2022-12-13T06:10:23.888Z,24.87
2022-12-13T06:12:50.983Z,32.60
2022-12-13T06:15:22.238Z,17.53
2022-12-13T06:17:49.930Z,16.30
2022-12-13T06:20:24.166Z,8.97
2022-12-13T06:22:52.790Z,11.90
2022-12-13T06:25:31.092Z,16.00
2022-12-13T06:27:59.006Z,16.40
2022-12-13T06:30:28.366Z,12.60
2022-12-13T06:32:55.511Z,12.67
2022-12-13T06:35:28.547Z,13.17
2022-12-13T06:38:00.875Z,12.47
2022-12-13T06:40:29.363Z,17.10
2022-12-13T06:42:56.455Z,16.90
2022-12-13T06:45:23.558Z,13.63
2022-12-13T06:47:50.664Z,16.23
2022-12-13T06:50:17.774Z,15.27
2022-12-13T06:52:46.325Z,24.93
2022-12-13T06:55:13.574Z,21.40
2022-12-13T06:57:41.259Z,19.43
2022-12-13T07:00:09.047Z,23.47
2022-12-13T07:02:36.299Z,17.03
2022-12-13T07:05:03.497Z,13.17
2022-12-13T07:07:30.997Z,17.30
2022-12-13T07:09:58.119Z,19.23
2022-12-13T07:12:25.279Z,32.73
2022-12-13T07:14:52.352Z,40.93
2022-12-13T07:17:32.074Z,40.13
2022-12-13T07:20:01.600Z,57.23
2022-12-13T07:22:28.824Z,52.60
2022-12-13T07:24:56.213Z,53.33
2022-12-13T07:27:23.296Z,53.47
2022-12-13T07:29:50.413Z,54.00
2022-12-13T07:32:17.540Z,45.97
2022-12-13T07:34:44.692Z,47.17
2022-12-13T07:37:30.189Z,43.93
2022-12-13T07:40:03.418Z,50.57
2022-12-13T07:42:31.712Z,45.73
2022-12-13T07:44:58.788Z,43.63
2022-12-13T07:47:29.598Z,54.83
2022-12-13T07:49:56.731Z,50.27
2022-12-13T07:52:23.841Z,51.10
2022-12-13T07:54:51.030Z,50.67
2022-12-13T07:57:18.137Z,52.50
2022-12-13T07:59:45.237Z,61.87
2022-12-13T08:02:13.347Z,51.57
2022-12-13T08:04:40.684Z,62.30
2022-12-13T08:07:08.997Z,67.83
2022-12-13T08:09:36.329Z,58.10
2022-12-13T08:12:03.557Z,54.10
2022-12-13T08:14:31.190Z,48.67
2022-12-13T08:16:58.320Z,22.50
2022-12-13T08:19:25.434Z,16.20
2022-12-13T08:21:55.221Z,17.67
2022-12-13T08:24:27.609Z,26.17
2022-12-13T08:26:55.111Z,17.80
2022-12-13T08:29:33.299Z,16.30
2022-12-13T08:32:02.913Z,29.87
2022-12-13T08:34:30.166Z,22.70
2022-12-13T08:37:01.457Z,27.00
2022-12-13T08:39:37.226Z,21.53
2022-12-13T08:42:16.655Z,21.07
2022-12-13T08:44:51.456Z,19.53
2022-12-13T08:47:25.123Z,14.07
2022-12-13T08:50:03.983Z,12.27
2022-12-13T08:52:39.758Z,17.03
2022-12-13T08:55:08.394Z,16.57
2022-12-13T08:57:36.896Z,12.60
2022-12-13T09:00:05.329Z,14.30
2022-12-13T09:02:37.983Z,12.27
2022-12-13T09:05:07.021Z,13.83
2022-12-13T09:07:35.868Z,13.50
2022-12-13T09:10:07.156Z,12.93
2022-12-13T09:12:50.364Z,16.60
2022-12-13T09:15:22.159Z,14.27
2022-12-13T09:17:52.656Z,16.23
2022-12-13T09:20:28.331Z,17.13
2022-12-13T09:23:01.168Z,17.57
2022-12-13T09:25:37.187Z,19.30
2022-12-13T09:28:06.338Z,23.23
2022-12-13T09:30:33.429Z,18.40
2022-12-13T09:33:29.288Z,13.27
2022-12-13T09:35:47.607Z,9.83
2022-12-13T09:38:14.699Z,14.53
2022-12-13T09:40:41.954Z,13.83
2022-12-13T09:43:12.593Z,17.73
2022-12-13T09:45:42.987Z,13.70
2022-12-13T09:48:13.523Z,16.07
2022-12-13T09:50:46.412Z,14.30
2022-12-13T09:53:22.019Z,12.00
2022-12-13T09:55:49.807Z,8.00
2022-12-13T09:58:29.772Z,10.60
2022-12-13T10:00:56.970Z,9.93
2022-12-13T10:03:24.566Z,7.50
2022-12-13T10:05:59.071Z,9.10
2022-12-13T10:08:28.844Z,11.17
2022-12-13T10:10:55.975Z,11.40
2022-12-13T10:13:41.532Z,10.57
2022-12-13T10:16:25.019Z,9.93
2022-12-13T10:18:52.260Z,8.03
2022-12-13T10:21:39.369Z,11.03
2022-12-13T10:24:25.856Z,8.93
2022-12-13T10:26:54.892Z,8.70
2022-12-13T10:29:22.080Z,11.53
2022-12-13T10:31:50.028Z,12.40
2022-12-13T10:34:24.535Z,9.97
2022-12-13T10:36:52.028Z,10.70
2022-12-13T10:39:20.699Z,9.47
2022-12-13T10:41:47.893Z,8.47
2022-12-13T10:44:25.503Z,9.67
2022-12-13T10:47:03.596Z,8.43
2022-12-13T10:49:36.440Z,8.27
2022-12-13T10:52:03.554Z,7.43
2022-12-13T10:54:38.764Z,9.23
2022-12-13T10:57:15.687Z,17.10
2022-12-13T10:59:42.851Z,20.47
2022-12-13T11:02:28.984Z,12.10
2022-12-13T11:04:58.092Z,14.57
2022-12-13T11:07:28.029Z,12.60
2022-12-13T11:09:55.147Z,15.07
2022-12-13T11:12:23.465Z,15.27
2022-12-13T11:14:50.592Z,18.87
2022-12-13T11:17:18.115Z,20.93
2022-12-13T11:19:46.213Z,19.00
2022-12-13T11:22:27.023Z,15.30
2022-12-13T11:25:04.063Z,14.77
2022-12-13T11:27:37.196Z,16.80
2022-12-13T11:30:09.474Z,14.73
2022-12-13T11:32:56.091Z,12.93
2022-12-13T11:35:43.997Z,13.20
2022-12-13T11:38:20.248Z,13.00
2022-12-13T11:40:47.967Z,30.47
2022-12-13T11:43:18.227Z,24.30
2022-12-13T11:45:46.687Z,16.97
2022-12-13T11:48:19.945Z,36.13
2022-12-13T11:50:48.028Z,47.43
2022-12-13T11:53:29.294Z,31.90
2022-12-13T11:56:02.750Z,33.77
2022-12-13T11:59:04.712Z,30.03
2022-12-13T12:01:40.608Z,19.87
2022-12-13T12:04:11.217Z,17.83
2022-12-13T12:06:39.742Z,11.30
2022-12-13T12:09:07.244Z,10.47
2022-12-13T12:11:43.139Z,11.13
2022-12-13T12:14:11.565Z,13.00
2022-12-13T12:16:43.599Z,16.70
2022-12-13T12:19:17.528Z,8.87
2022-12-13T12:24:47.444Z,9.37
2022-12-13T12:27:30.180Z,14.97
2022-12-13T12:30:01.195Z,8.00
2022-12-13T12:32:33.160Z,9.73
2022-12-13T12:35:03.319Z,7.97
2022-12-13T12:37:33.532Z,9.47
2022-12-13T12:40:24.549Z,9.27
2022-12-13T12:45:56.912Z,13.77
2022-12-13T12:51:12.577Z,11.50
2022-12-13T12:53:44.373Z,7.27
2022-12-13T12:56:15.353Z,10.10
2022-12-13T12:58:48.586Z,15.40
2022-12-13T13:01:15.788Z,14.03
2022-12-13T13:03:43.168Z,16.33
2022-12-13T13:06:14.991Z,18.43
2022-12-13T13:08:42.080Z,13.63
2022-12-13T13:11:24.439Z,94.93
2022-12-13T13:14:03.276Z,58.87
2022-12-13T13:16:33.680Z,23.87
2022-12-13T13:19:01.615Z,19.33
2022-12-13T13:21:32.232Z,17.70
2022-12-13T13:24:02.388Z,14.53
2022-12-13T13:26:35.905Z,11.13
2022-12-13T13:29:27.623Z,12.40
2022-12-13T13:32:01.921Z,11.10
2022-12-13T13:34:30.381Z,11.37
2022-12-13T13:36:57.945Z,13.13
2022-12-13T13:39:45.321Z,17.23
2022-12-13T13:42:15.474Z,13.17
2022-12-13T13:44:54.556Z,13.67
2022-12-13T13:47:24.656Z,13.47
2022-12-13T13:50:01.773Z,16.10
2022-12-13T13:52:44.868Z,13.47
2022-12-13T13:55:14.751Z,11.70
2022-12-13T13:58:09.276Z,10.57
2022-12-13T14:00:42.963Z,11.67
2022-12-13T14:03:32.972Z,14.47
2022-12-13T14:06:00.263Z,12.10
2022-12-13T14:08:32.389Z,11.00
2022-12-13T14:11:08.633Z,12.03
2022-12-13T14:13:40.006Z,10.30
2022-12-13T14:16:12.141Z,12.57
2022-12-13T14:18:59.226Z,13.03
2022-12-13T14:21:29.389Z,10.50
2022-12-13T14:24:15.103Z,8.90
2022-12-13T14:26:51.406Z,8.53
2022-12-13T14:29:20.717Z,31.57
2022-12-13T14:31:48.164Z,17.80
2022-12-13T14:34:20.424Z,28.10
2022-12-13T14:36:49.716Z,61.67
2022-12-13T14:39:24.780Z,67.37
2022-12-13T14:41:56.739Z,77.10
2022-12-13T14:44:29.302Z,99.27
2022-12-13T14:46:56.590Z,78.37
2022-12-13T14:49:24.436Z,100.27
2022-12-13T14:52:00.934Z,115.30
2022-12-13T14:54:28.449Z,110.13
2022-12-13T14:56:59.421Z,110.73
2022-12-13T14:59:26.780Z,101.67
2022-12-13T15:01:54.795Z,127.20
2022-12-13T15:04:21.998Z,186.07
2022-12-13T15:06:49.720Z,132.67
2022-12-13T15:09:16.917Z,102.77
2022-12-13T15:11:44.643Z,95.07
2022-12-13T15:14:15.943Z,122.40
2022-12-13T15:16:47.367Z,159.53
2022-12-13T15:19:14.566Z,128.00
2022-12-13T15:22:02.089Z,114.10
2022-12-13T15:24:30.300Z,138.80
2022-12-13T15:26:58.003Z,140.60
2022-12-13T15:29:25.845Z,141.20
2022-12-13T15:31:54.332Z,144.40
2022-12-13T15:34:28.768Z,167.83
2022-12-13T15:36:57.608Z,175.13
2022-12-13T15:39:27.914Z,174.10
2022-12-13T15:41:55.398Z,163.57
2022-12-13T15:44:36.655Z,190.13
2022-12-13T15:47:05.158Z,231.90
2022-12-13T15:49:33.795Z,162.47
2022-12-13T15:52:02.280Z,139.57
2022-12-13T15:54:29.687Z,182.20
2022-12-13T15:56:56.832Z,178.33
2022-12-13T15:59:28.058Z,158.10
2022-12-13T16:01:58.469Z,167.43
2022-12-13T16:04:28.185Z,158.07
2022-12-13T16:06:58.090Z,161.10
2022-12-13T16:09:26.492Z,217.87
2022-12-13T16:11:57.526Z,222.43
2022-12-13T16:14:27.836Z,196.90
2022-12-13T16:16:55.377Z,174.83
2022-12-13T16:19:23.075Z,173.63
2022-12-13T16:21:50.299Z,164.47
2022-12-13T16:24:17.451Z,210.43
2022-12-13T16:26:45.397Z,194.37
2022-12-13T16:29:13.020Z,195.87
2022-12-13T16:31:41.572Z,170.73
2022-12-13T16:34:09.036Z,172.73
2022-12-13T16:36:36.347Z,149.37
2022-12-13T16:39:06.519Z,109.97
2022-12-13T16:41:41.573Z,146.07
2022-12-13T16:44:09.353Z,143.27
2022-12-13T16:47:14.234Z,172.73
2022-12-13T16:49:27.056Z,190.03
2022-12-13T16:51:54.259Z,203.87
2022-12-13T16:54:21.719Z,181.47
2022-12-13T16:56:48.971Z,168.53
2022-12-13T16:59:16.823Z,178.70
2022-12-13T17:01:44.193Z,166.43
2022-12-13T17:04:19.644Z,168.70
2022-12-13T17:06:47.082Z,138.73
2022-12-13T17:09:14.211Z,143.03
2022-12-13T17:11:41.412Z,124.80
2022-12-13T17:14:08.713Z,172.07
2022-12-13T17:16:35.865Z,162.83
2022-12-13T17:19:03.041Z,94.50
2022-12-13T17:21:30.228Z,80.57
2022-12-13T17:23:57.788Z,164.10
2022-12-13T17:26:24.998Z,267.03
2022-12-13T17:28:52.142Z,312.00
2022-12-13T17:31:19.400Z,246.50
2022-12-13T17:33:46.582Z,298.83
2022-12-13T17:36:14.313Z,230.00
2022-12-13T17:38:45.659Z,318.87
2022-12-13T17:41:13.245Z,337.70
2022-12-13T17:43:41.091Z,312.70
2022-12-13T17:46:10.292Z,295.30
2022-12-13T17:48:40.887Z,271.77
2022-12-13T17:51:11.728Z,219.83
2022-12-13T17:53:39.172Z,193.07
2022-12-13T17:56:07.737Z,170.33
2022-12-13T17:58:35.414Z,152.43
2022-12-13T18:01:12.521Z,203.03
2022-12-13T18:03:39.694Z,165.47
2022-12-13T18:06:07.218Z,202.10
2022-12-13T18:08:38.883Z,243.83
2022-12-13T18:11:31.881Z,293.40
2022-12-13T18:13:54.550Z,284.00
2022-12-13T18:16:22.520Z,309.37
2022-12-13T18:18:55.011Z,214.77
2022-12-13T18:21:23.011Z,237.93
2022-12-13T18:23:55.378Z,221.80
2022-12-13T18:26:25.040Z,196.80
2022-12-13T18:28:52.375Z,235.97
2022-12-13T18:31:23.157Z,156.27
2022-12-13T18:33:50.933Z,132.70
2022-12-13T18:36:18.127Z,144.30
2022-12-13T18:38:45.267Z,131.23
2022-12-13T18:41:14.874Z,121.40
2022-12-13T18:43:42.532Z,109.87
2022-12-13T18:46:10.088Z,108.83
2022-12-13T18:48:37.332Z,122.47
2022-12-13T18:51:05.459Z,121.97
2022-12-13T18:53:32.814Z,99.10
2022-12-13T18:56:04.801Z,99.53
2022-12-13T18:58:35.718Z,103.27
2022-12-13T19:01:03.215Z,144.57
2022-12-13T19:03:30.933Z,163.30
2022-12-13T19:05:58.939Z,153.17
2022-12-13T19:08:26.412Z,154.53
2022-12-13T19:10:54.269Z,187.67
2022-12-13T19:13:22.972Z,186.47
2022-12-13T19:15:51.060Z,172.80
2022-12-13T19:18:18.315Z,174.50
2022-12-13T19:20:48.692Z,173.90
2022-12-13T19:23:16.198Z,171.63
2022-12-13T19:25:43.358Z,167.73
2022-12-13T19:28:11.566Z,177.90
2022-12-13T19:30:39.066Z,162.10
2022-12-13T19:33:07.884Z,174.60
2022-12-13T19:35:35.384Z,166.77
2022-12-13T19:38:02.607Z,194.00
2022-12-13T19:40:29.852Z,183.53
2022-12-13T19:42:57.049Z,183.77
2022-12-13T19:45:24.263Z,188.07
2022-12-13T19:47:51.498Z,181.03
2022-12-13T19:50:18.730Z,211.07
2022-12-13T19:52:46.384Z,232.07
2022-12-13T19:55:14.374Z,311.57
2022-12-13T19:57:41.668Z,286.57
2022-12-13T20:00:09.260Z,263.97
2022-12-13T20:02:36.776Z,251.40
2022-12-13T20:05:04.150Z,228.57
2022-12-13T20:07:31.375Z,232.37
2022-12-13T20:09:58.558Z,224.20
2022-12-13T20:12:25.753Z,228.97
2022-12-13T20:14:52.915Z,237.50
2022-12-13T20:17:20.183Z,227.77
2022-12-13T20:19:47.475Z,211.33
2022-12-13T20:22:15.606Z,310.07
2022-12-13T20:24:43.133Z,360.73
2022-12-13T20:27:11.812Z,548.80
2022-12-13T20:29:39.017Z,398.43
2022-12-13T20:32:06.354Z,405.93
2022-12-13T20:34:34.414Z,428.93
2022-12-13T20:37:01.585Z,485.33
2022-12-13T20:39:28.944Z,384.53
2022-12-13T20:41:56.150Z,358.50
2022-12-13T20:44:23.431Z,347.03
2022-12-13T20:46:50.706Z,313.27
2022-12-13T20:49:17.928Z,364.40
2022-12-13T20:51:45.140Z,331.37
2022-12-13T20:54:12.482Z,340.27
2022-12-13T20:56:39.788Z,357.33
2022-12-13T20:59:07.633Z,338.47
2022-12-13T21:01:36.146Z,347.97
2022-12-13T21:04:04.906Z,314.70
2022-12-13T21:06:32.703Z,316.03
2022-12-13T21:09:02.691Z,303.00
2022-12-13T21:11:40.171Z,305.13
2022-12-13T21:14:13.629Z,338.77
2022-12-13T21:16:45.914Z,327.37
2022-12-13T21:19:16.976Z,324.63
2022-12-13T21:21:44.183Z,271.70
2022-12-13T21:24:13.548Z,266.87
2022-12-13T21:26:40.996Z,243.87
2022-12-13T21:29:08.542Z,239.93
2022-12-13T21:31:36.223Z,239.73
2022-12-13T21:34:03.472Z,219.13
2022-12-13T21:36:31.332Z,228.43
2022-12-13T21:39:05.882Z,243.57
2022-12-13T21:41:33.082Z,198.47
2022-12-13T21:44:00.682Z,203.47
2022-12-13T21:46:41.370Z,220.43
2022-12-13T21:49:15.609Z,242.27
2022-12-13T21:51:47.564Z,228.10
2022-12-13T21:54:15.265Z,240.20
2022-12-13T21:57:17.859Z,240.23
2022-12-13T21:59:45.123Z,250.97
2022-12-13T22:02:16.297Z,265.83
2022-12-13T22:04:43.720Z,236.10
2022-12-13T22:07:11.637Z,241.23
2022-12-13T22:09:38.845Z,218.60
2022-12-13T22:12:09.657Z,214.17
2022-12-13T22:14:37.226Z,215.97
2022-12-13T22:17:04.375Z,190.50
2022-12-13T22:19:31.614Z,189.37
2022-12-13T22:21:58.824Z,172.43
2022-12-13T22:24:26.035Z,185.40
2022-12-13T22:26:53.256Z,184.43
2022-12-13T22:29:20.440Z,175.87
2022-12-13T22:31:48.892Z,181.20
2022-12-13T22:34:16.383Z,195.27
2022-12-13T22:36:43.589Z,176.60
2022-12-13T22:39:17.382Z,161.27
2022-12-13T22:41:45.109Z,170.13
2022-12-13T22:44:12.349Z,182.03
2022-12-13T22:46:39.574Z,199.70
2022-12-13T22:49:06.719Z,163.10
2022-12-13T22:51:33.917Z,186.03
2022-12-13T22:54:01.275Z,167.23
2022-12-13T22:56:28.520Z,163.63
2022-12-13T22:58:55.939Z,155.00
2022-12-13T23:01:24.441Z,173.37
2022-12-13T23:03:51.678Z,159.30
2022-12-13T23:06:19.833Z,155.43
2022-12-13T23:08:50.427Z,138.60
2022-12-13T23:11:36.253Z,146.13
2022-12-13T23:14:04.074Z,163.70
2022-12-13T23:16:31.969Z,167.73
2022-12-13T23:19:24.075Z,143.23
2022-12-13T23:21:48.416Z,170.73
2022-12-13T23:24:16.012Z,155.77
2022-12-13T23:26:43.259Z,135.23
2022-12-13T23:29:10.897Z,131.50
2022-12-13T23:31:56.928Z,179.17
2022-12-13T23:34:24.087Z,185.03
2022-12-13T23:36:51.265Z,163.10
2022-12-13T23:39:18.470Z,185.93
2022-12-13T23:41:45.667Z,188.23
2022-12-13T23:44:12.907Z,190.40
2022-12-13T23:46:40.060Z,207.13
2022-12-13T23:49:07.484Z,187.93
2022-12-13T23:51:34.948Z,191.80
2022-12-13T23:54:02.133Z,194.00
2022-12-13T23:56:29.774Z,233.37
2022-12-13T23:58:57.076Z,213.90
